x

Ps-1126 Tabs J (42044) Weather Station

11:00am - Fri 28th Jul 2017 All times are CDT. -5 hours from GMT.

  • Wind
    9mph, 9mph gusts
  • Sea Temp 82°f
  • Air Temp 81°f
  • Sea Pressure 1015.3mb
  • Ps-1126 Tabs J
  • Ps-1126 Tabs J

More Historic Weather Station data

Upgrade to MSW Pro to gain access to the past 30 days of data for over 8000 Wavebouys and Weather Stations around the globe.

Join Pro

Comparision Forecast

View Surf forecast
   
Fri 07/28 11:00am 9 9 mph 1015.3mb 82f 81f
10:00am 7 9 mph 1015.2mb 82f 81f
9:00am 7 7 mph 1015.2mb 82f 81f
8:00am 7 7 mph 1014.9mb 82f 81f
7:00am 4 7 mph 1014.6mb 82f 80f
6:00am 7 9 mph 1014mb 82f 81f
5:00am 9 11 mph 1013.9mb 82f 81f
4:00am 9 11 mph 1013.9mb 82f 81f
3:00am 9 11 mph 1014.2mb 81f 81f
2:00am 9 11 mph 1014.3mb 81f 81f
1:00am 11 13 mph 1014.8mb 81f 82f
12:00am 11 11 mph 1014.8mb 81f 82f
Thu 07/27 11:00pm 11 13 mph 1014.7mb 81f 82f
6:00pm 11 13 mph 1014.8mb 82f 82f
5:00pm 11 13 mph 1015.1mb 82f 82f
4:00pm 11 13 mph 1015.7mb 82f 82f
3:00pm 9 11 mph 1016.3mb 82f 82f
2:00pm 9 11 mph 1016.9mb 81f 82f
1:00pm 7 9 mph 1017.3mb 81f 82f
12:00pm 7 7 mph 1017.6mb 81f 81f
11:00am 7 7 mph 1017.6mb 80f 81f
10:00am 7 9 mph 1017.3mb 80f 80f
9:00am 4 7 mph 1016.9mb 80f 80f
8:00am 7 7 mph 1016.4mb 80f 80f
7:00am 9 11 mph 1016.2mb 80f 79f
6:00am 9 11 mph 1015.9mb 80f 79f
5:00am 7 9 mph 1015.9mb 80f 79f
4:00am 2 2 mph 1016.2mb 80f 79f
3:00am 2 2 mph 1016.3mb 80f 79f
2:00am 2 4 mph 1016.6mb 80f 79f
1:00am 4 4 mph 1017mb 80f 80f
12:00am 9 11 mph 1017.6mb 80f 80f
Wed 07/26 11:00pm 9 11 mph 1017.8mb 81f 80f
6:00pm 11 13 mph 1016.5mb 81f 81f
5:00pm 11 13 mph 1017mb 81f 81f
4:00pm 11 13 mph 1016.8mb 81f 80f
3:00pm 11 16 mph 1017.8mb 81f 79f
2:00pm 13 18 mph 1018.5mb 81f 79f
1:00pm 9 11 mph 1018.9mb 81f 82f
12:00pm 4 7 mph 1019mb 80f 82f
11:00am 4 7 mph 1019mb 80f 82f
10:00am 2 2 mph 1018.9mb 80f 81f
9:00am 2 4 mph 1018.5mb 80f 82f
8:00am 2 2 mph 1018.1mb 80f 80f
7:00am  -  2 mph 1018.1mb 80f 80f
5:00am 7 7 mph 1017.6mb 80f 80f
4:00am 4 7 mph 1017.2mb 80f 79f
3:00am 9 11 mph 1017.1mb 80f 79f
2:00am 9 11 mph 1017mb 80f 80f
1:00am 7 9 mph 1017.4mb 80f 80f
12:00am 9 13 mph 1017.7mb 80f 81f
Tue 07/25 11:00pm 13 18 mph 1018.1mb 81f 80f
6:00pm 16 18 mph 1016.7mb 81f 81f
5:00pm 18 22 mph 1017.5mb 82f 80f
4:00pm 9 11 mph 1017.1mb 82f 82f
3:00pm 9 9 mph 1017.2mb 81f 82f
2:00pm 11 13 mph 1017.8mb 81f 82f
1:00pm 7 9 mph 1018.2mb 81f 82f
12:00pm 9 11 mph 1018.2mb 80f 82f
11:00am 7 7 mph 1018.2mb 80f 82f
10:00am 4 7 mph 1017.6mb 80f 81f
9:00am 7 9 mph 1017.4mb 80f 81f
8:00am 9 13 mph 1016.9mb 80f 81f
7:00am 11 13 mph 1016.7mb 80f 81f
6:00am 9 11 mph 1016.1mb 80f 80f
5:00am 9 11 mph 1016mb 80f 81f
4:00am 4 4 mph 1016mb 80f 81f
3:00am 9 9 mph 1015.9mb 80f 81f
2:00am 11 13 mph 1015.8mb 80f 81f
1:00am 11 13 mph 1015.7mb 80f 81f
12:00am 11 13 mph 1015.7mb 81f 81f
Mon 07/24 11:00pm 11 13 mph 1015.7mb 81f 81f